createdAt,value
2022-07-28T00:02:16.578Z,1.30
2022-07-28T00:06:17.799Z,1.70
2022-07-28T00:10:19.029Z,1.60
2022-07-28T00:14:20.728Z,1.50
2022-07-28T00:18:21.875Z,1.60
2022-07-28T00:22:23.095Z,1.90
2022-07-28T00:26:24.327Z,1.60
2022-07-28T00:30:25.542Z,1.87
2022-07-28T00:34:27.380Z,2.20
2022-07-28T00:38:28.608Z,1.70
2022-07-28T00:42:30.037Z,1.60
2022-07-28T00:46:31.327Z,1.73
2022-07-28T00:50:32.912Z,1.80
2022-07-28T00:54:34.838Z,1.47
2022-07-28T00:58:37.683Z,1.60
2022-07-28T01:02:39.456Z,1.50
2022-07-28T01:07:20.000Z,1.83
2022-07-28T01:11:31.590Z,1.40
2022-07-28T01:15:36.909Z,1.97
2022-07-28T01:19:54.020Z,1.77
2022-07-28T01:24:02.637Z,1.93
2022-07-28T01:28:22.821Z,1.77
2022-07-28T01:32:30.375Z,1.40
2022-07-28T01:36:35.095Z,1.23
2022-07-28T01:40:38.433Z,1.50
2022-07-28T01:44:44.787Z,1.97
2022-07-28T01:48:48.524Z,1.70
2022-07-28T01:52:51.261Z,1.50
2022-07-28T01:56:53.988Z,1.30
2022-07-28T02:00:56.840Z,1.20
2022-07-28T02:04:59.405Z,1.20
2022-07-28T02:09:03.912Z,1.73
2022-07-28T02:13:05.823Z,1.50
2022-07-28T02:17:13.925Z,1.80
2022-07-28T02:21:16.141Z,1.83
2022-07-28T02:25:17.267Z,1.37
2022-07-28T02:29:49.287Z,1.43
2022-07-28T02:33:59.011Z,1.67
2022-07-28T02:37:34.510Z,1.70
2022-07-28T02:41:41.678Z,1.73
2022-07-28T02:45:46.633Z,1.63
2022-07-28T02:49:50.260Z,1.80
2022-07-28T02:53:52.975Z,1.63
2022-07-28T02:57:56.950Z,1.80
2022-07-28T03:01:59.310Z,1.90
2022-07-28T03:06:00.988Z,1.70
2022-07-28T03:10:03.391Z,1.20
2022-07-28T03:14:04.601Z,1.73
2022-07-28T03:18:06.734Z,2.37
2022-07-28T03:22:10.457Z,2.00
2022-07-28T03:26:17.637Z,1.90
2022-07-28T03:30:22.071Z,1.57
2022-07-28T03:34:23.597Z,1.93
2022-07-28T03:38:31.632Z,1.90
2022-07-28T03:42:33.691Z,1.87
2022-07-28T03:46:35.277Z,2.03
2022-07-28T03:50:36.476Z,1.60
2022-07-28T03:54:37.622Z,2.13
2022-07-28T03:58:38.862Z,2.10
2022-07-28T04:02:43.347Z,1.90
2022-07-28T04:06:44.650Z,1.70
2022-07-28T04:10:45.792Z,1.50
2022-07-28T04:14:47.032Z,1.77
2022-07-28T04:18:48.265Z,1.63
2022-07-28T04:22:50.189Z,1.80
2022-07-28T04:26:51.397Z,1.90
2022-07-28T04:30:54.603Z,2.03
2022-07-28T04:34:56.160Z,1.57
2022-07-28T04:38:58.576Z,1.70
2022-07-28T04:42:59.831Z,1.67
2022-07-28T04:47:00.960Z,1.77
2022-07-28T04:51:04.573Z,2.13
2022-07-28T04:55:07.035Z,1.40
2022-07-28T04:59:08.151Z,1.73
2022-07-28T05:03:11.772Z,1.47
2022-07-28T05:07:13.044Z,2.17
2022-07-28T05:11:14.240Z,1.70
2022-07-28T05:15:15.479Z,1.70
2022-07-28T05:19:17.086Z,1.43
2022-07-28T05:23:18.323Z,1.90
2022-07-28T05:27:19.661Z,1.77
2022-07-28T05:31:20.968Z,1.93
2022-07-28T05:35:22.192Z,1.60
2022-07-28T05:39:23.723Z,1.70
2022-07-28T05:43:25.365Z,1.97
2022-07-28T05:47:26.582Z,1.50
2022-07-28T05:51:27.803Z,1.70
2022-07-28T05:55:29.249Z,1.60
2022-07-28T05:59:30.477Z,1.80
2022-07-28T06:03:38.304Z,2.23
2022-07-28T06:07:43.260Z,1.80
2022-07-28T06:11:40.378Z,1.60
2022-07-28T06:15:41.807Z,1.73
2022-07-28T06:19:44.557Z,2.37
2022-07-28T06:23:45.797Z,1.77
2022-07-28T06:27:48.556Z,1.87
2022-07-28T06:31:50.056Z,1.73
2022-07-28T06:35:51.709Z,1.70
2022-07-28T06:39:53.085Z,2.17
2022-07-28T06:43:54.308Z,1.80
2022-07-28T06:47:55.526Z,2.50
2022-07-28T06:51:56.878Z,1.87
2022-07-28T06:55:58.118Z,1.80
2022-07-28T07:00:02.654Z,1.77
2022-07-28T07:04:04.219Z,2.03
2022-07-28T07:08:05.683Z,2.00
2022-07-28T07:12:06.977Z,1.80
2022-07-28T07:16:08.359Z,1.77
2022-07-28T07:20:10.164Z,1.77
2022-07-28T07:24:11.776Z,1.70
2022-07-28T07:28:13.462Z,1.87
2022-07-28T07:32:14.670Z,2.83
2022-07-28T07:36:15.779Z,2.40
2022-07-28T07:40:17.226Z,1.57
2022-07-28T07:44:18.481Z,2.60
2022-07-28T07:48:19.682Z,2.70
2022-07-28T07:52:20.931Z,2.20
2022-07-28T07:56:22.137Z,2.00
2022-07-28T08:00:28.722Z,2.20
2022-07-28T08:04:26.799Z,2.03
2022-07-28T08:08:29.792Z,2.43
2022-07-28T08:12:31.024Z,1.83
2022-07-28T08:16:32.397Z,2.70
2022-07-28T08:20:33.701Z,2.20
2022-07-28T08:24:35.118Z,2.30
2022-07-28T08:28:36.479Z,2.07
2022-07-28T08:32:38.015Z,2.33
2022-07-28T08:36:39.343Z,1.70
2022-07-28T08:40:42.235Z,2.30
2022-07-28T08:44:50.286Z,2.27
2022-07-28T08:48:51.930Z,2.00
2022-07-28T08:52:53.399Z,1.80
2022-07-28T08:56:56.716Z,2.50
2022-07-28T09:00:58.674Z,2.77
2022-07-28T09:05:00.811Z,2.47
2022-07-28T09:09:01.938Z,2.40
2022-07-28T09:13:03.163Z,2.93
2022-07-28T09:17:05.406Z,2.57
2022-07-28T09:21:07.407Z,2.63
2022-07-28T09:25:19.819Z,2.23
2022-07-28T09:29:24.667Z,2.40
2022-07-28T09:33:41.903Z,2.23
2022-07-28T09:37:31.943Z,2.67
2022-07-28T09:41:48.613Z,2.30
2022-07-28T09:45:53.651Z,2.40
2022-07-28T09:49:54.887Z,2.50
2022-07-28T09:54:07.971Z,2.50
2022-07-28T09:58:09.514Z,2.50
2022-07-28T10:02:12.170Z,2.73
2022-07-28T10:06:15.553Z,2.67
2022-07-28T10:10:21.320Z,2.33
2022-07-28T10:14:31.421Z,2.20
2022-07-28T10:18:32.645Z,2.83
2022-07-28T10:22:42.454Z,2.50
2022-07-28T10:26:43.530Z,2.77
2022-07-28T10:30:46.979Z,2.80
2022-07-28T10:34:51.462Z,2.30
2022-07-28T10:38:56.407Z,2.43
2022-07-28T10:42:59.854Z,2.30
2022-07-28T10:47:02.030Z,2.50
2022-07-28T10:51:03.809Z,2.70
2022-07-28T10:55:13.645Z,2.67
2022-07-28T10:59:30.791Z,2.50
2022-07-28T11:03:43.625Z,2.10
2022-07-28T11:07:44.903Z,2.80
2022-07-28T11:11:51.948Z,2.93
2022-07-28T11:15:54.061Z,2.70
2022-07-28T11:24:00.212Z,2.70
2022-07-28T11:28:03.630Z,2.67
2022-07-28T11:32:05.255Z,2.97
2022-07-28T11:36:06.623Z,2.83
2022-07-28T11:40:44.018Z,2.33
2022-07-28T11:44:46.064Z,2.70
2022-07-28T11:48:53.066Z,3.17
2022-07-28T11:52:56.234Z,2.80
2022-07-28T11:56:58.150Z,3.10
2022-07-28T12:01:19.637Z,2.77
2022-07-28T12:05:22.163Z,2.47
2022-07-28T12:09:41.333Z,2.67
2022-07-28T12:13:34.762Z,2.67
2022-07-28T12:17:36.202Z,2.50
2022-07-28T12:21:46.184Z,2.70
2022-07-28T12:25:46.973Z,2.80
2022-07-28T12:29:56.954Z,2.40
2022-07-28T12:33:59.522Z,3.13
2022-07-28T12:38:00.827Z,3.30
2022-07-28T12:42:08.024Z,3.23
2022-07-28T12:46:09.417Z,2.50
2022-07-28T12:50:16.462Z,2.80
2022-07-28T12:54:18.074Z,3.10
2022-07-28T12:58:29.123Z,3.67
2022-07-28T13:02:37.173Z,3.83
2022-07-28T13:06:39.952Z,3.13
2022-07-28T13:10:48.834Z,3.20
2022-07-28T13:14:55.664Z,2.97
2022-07-28T13:19:01.103Z,3.30
2022-07-28T13:23:02.311Z,2.53
2022-07-28T13:27:06.196Z,3.07
2022-07-28T13:31:07.782Z,3.23
2022-07-28T13:35:15.158Z,2.70
2022-07-28T13:39:13.558Z,3.00
2022-07-28T13:43:14.755Z,2.90
2022-07-28T13:47:16.548Z,2.83
2022-07-28T13:51:18.620Z,3.37
2022-07-28T13:55:23.128Z,2.97
2022-07-28T13:59:26.209Z,2.97
2022-07-28T14:03:28.937Z,3.30
2022-07-28T14:07:32.363Z,2.73
2022-07-28T14:11:34.514Z,2.97
2022-07-28T14:15:36.767Z,3.00
2022-07-28T14:19:38.840Z,3.60
2022-07-28T14:23:41.192Z,2.97
2022-07-28T14:27:42.354Z,2.77
2022-07-28T14:31:43.640Z,3.03
2022-07-28T14:35:44.926Z,3.50
2022-07-28T14:39:46.041Z,2.90
2022-07-28T14:43:47.266Z,2.63
2022-07-28T14:47:48.480Z,3.27
2022-07-28T14:51:50.418Z,2.90
2022-07-28T14:55:51.624Z,3.27
2022-07-28T14:59:52.842Z,3.30
2022-07-28T15:03:53.981Z,3.40
2022-07-28T15:07:55.202Z,2.97
2022-07-28T15:11:56.328Z,3.67
2022-07-28T15:15:59.290Z,3.07
2022-07-28T15:20:02.363Z,2.93
2022-07-28T15:24:05.168Z,3.87
2022-07-28T15:28:06.493Z,3.50
2022-07-28T15:32:07.766Z,3.07
2022-07-28T15:36:10.784Z,3.33
2022-07-28T15:40:12.269Z,3.10
2022-07-28T15:44:15.652Z,2.87
2022-07-28T15:48:17.061Z,3.20
2022-07-28T15:52:18.275Z,3.30
2022-07-28T15:56:19.415Z,3.30
2022-07-28T16:00:20.604Z,3.80
2022-07-28T16:04:21.826Z,3.40
2022-07-28T16:08:25.025Z,3.00
2022-07-28T16:12:26.381Z,3.40
2022-07-28T16:16:27.692Z,2.93
2022-07-28T16:20:30.792Z,3.53
2022-07-28T16:24:32.220Z,4.53
2022-07-28T16:28:33.483Z,5.37
2022-07-28T16:32:34.711Z,4.03
2022-07-28T16:36:37.347Z,4.23
2022-07-28T16:40:38.667Z,4.23
2022-07-28T16:44:41.913Z,2.90
2022-07-28T16:48:43.234Z,3.73
2022-07-28T16:52:44.448Z,3.77
2022-07-28T16:56:45.570Z,3.80
2022-07-28T17:00:46.816Z,3.80
2022-07-28T17:04:48.179Z,4.20
2022-07-28T17:08:49.719Z,3.30
2022-07-28T17:12:51.223Z,3.00
2022-07-28T17:16:52.452Z,3.60
2022-07-28T17:20:53.672Z,2.83
2022-07-28T17:24:54.907Z,3.40
2022-07-28T17:28:56.134Z,2.90
2022-07-28T17:33:01.422Z,3.20
2022-07-28T17:37:03.078Z,3.37
2022-07-28T17:41:04.575Z,3.50
2022-07-28T17:45:06.323Z,3.40
2022-07-28T17:49:08.255Z,3.63
2022-07-28T17:53:09.999Z,2.93
2022-07-28T17:57:13.299Z,2.93
2022-07-28T18:01:15.255Z,3.67
2022-07-28T18:05:17.409Z,3.17
2022-07-28T18:09:18.632Z,3.33
2022-07-28T18:13:20.561Z,3.57
2022-07-28T18:17:21.782Z,3.30
2022-07-28T18:21:23.096Z,3.30
2022-07-28T18:25:25.623Z,3.17
2022-07-28T18:29:38.569Z,3.60
2022-07-28T18:33:30.266Z,2.80
2022-07-28T18:37:31.406Z,3.17
2022-07-28T18:41:34.461Z,3.30
2022-07-28T18:45:35.925Z,3.23
2022-07-28T18:49:38.089Z,3.53
2022-07-28T18:53:39.482Z,2.93
2022-07-28T18:57:45.337Z,3.17
2022-07-28T19:01:46.634Z,2.70
2022-07-28T19:05:47.914Z,3.07
2022-07-28T19:09:49.027Z,2.70
2022-07-28T19:13:50.250Z,3.93
2022-07-28T19:18:10.039Z,3.20
2022-07-28T19:21:54.790Z,3.10
2022-07-28T19:25:56.862Z,3.30
2022-07-28T19:29:58.691Z,3.00
2022-07-28T19:34:00.223Z,3.60
2022-07-28T19:38:02.049Z,4.17
2022-07-28T19:42:06.703Z,3.33
2022-07-28T19:46:07.983Z,3.80
2022-07-28T19:50:09.563Z,4.10
2022-07-28T19:54:11.998Z,3.50
2022-07-28T19:58:14.814Z,3.80
2022-07-28T20:02:16.064Z,3.57
2022-07-28T20:06:17.366Z,3.80
2022-07-28T20:10:21.290Z,4.07
2022-07-28T20:14:22.819Z,4.00
2022-07-28T20:18:24.150Z,2.80
2022-07-28T20:22:25.483Z,3.43
2022-07-28T20:26:27.226Z,3.03
2022-07-28T20:30:29.767Z,3.40
2022-07-28T20:34:30.989Z,3.93
2022-07-28T20:38:32.210Z,2.90
2022-07-28T20:42:33.667Z,3.07
2022-07-28T20:46:34.946Z,2.90
2022-07-28T20:50:36.236Z,3.07
2022-07-28T20:54:37.766Z,3.30
2022-07-28T20:58:40.218Z,2.83
2022-07-28T21:02:41.503Z,3.73
2022-07-28T21:06:50.151Z,3.67
2022-07-28T21:10:46.079Z,2.90
2022-07-28T21:14:47.705Z,2.90
2022-07-28T21:18:49.220Z,2.37
2022-07-28T21:22:51.203Z,2.70
2022-07-28T21:26:52.829Z,2.80
2022-07-28T21:30:54.069Z,2.60
2022-07-28T21:34:55.295Z,2.90
2022-07-28T21:38:56.632Z,2.77
2022-07-28T21:42:57.868Z,2.47
2022-07-28T21:46:59.123Z,2.37
2022-07-28T21:51:00.597Z,2.80
2022-07-28T21:55:02.495Z,3.07
2022-07-28T21:59:04.220Z,2.83
2022-07-28T22:03:05.466Z,2.67
2022-07-28T22:07:06.737Z,2.57
2022-07-28T22:11:07.969Z,2.80
2022-07-28T22:15:09.791Z,2.73
2022-07-28T22:19:11.849Z,2.90
2022-07-28T22:23:28.669Z,2.90
2022-07-28T22:27:16.271Z,2.80
2022-07-28T22:31:17.626Z,3.13
2022-07-28T22:35:19.034Z,3.60
2022-07-28T22:39:20.467Z,3.30
2022-07-28T22:43:22.494Z,3.07
2022-07-28T22:47:23.615Z,3.20
2022-07-28T22:51:24.767Z,3.30
2022-07-28T22:55:26.180Z,2.60
2022-07-28T22:59:27.416Z,3.23
2022-07-28T23:03:30.704Z,2.90
2022-07-28T23:07:51.045Z,2.60
2022-07-28T23:11:35.297Z,3.27
2022-07-28T23:15:40.614Z,3.57
2022-07-28T23:19:39.677Z,3.20
2022-07-28T23:23:40.877Z,3.60
2022-07-28T23:27:42.023Z,3.23
2022-07-28T23:31:43.363Z,2.77
2022-07-28T23:35:44.577Z,2.93
2022-07-28T23:39:45.801Z,3.13
2022-07-28T23:43:47.052Z,2.77
2022-07-28T23:47:48.272Z,2.40
2022-07-28T23:51:49.413Z,2.63
2022-07-28T23:55:50.659Z,3.50
2022-07-28T23:59:52.601Z,3.20
